Luis Beltran, Argentina
Current Conditions -  °F | °C
As of 6:00 AM on Saturday 22 Nov 2014 (Local Time) from SAZN Reporting Station
Clear Clear  
Wind Chill: 55°   Ceiling: Unl
Heat Index: 55°   Visibility: 6mi
Dew Point: 45°   Wind: 5mph
Humidity: 67%   Direction: 270°W
Pressure: 29.91"   Gusts: NA
Location:  39.31°S, 65.76°W
Report Text: SAZN 220900Z 27004KT CAVOK 13/07 Q1013
Loading
Personal Weather Stations






























Interactive Weather Map New forecast layout! Learn more

10-Day Weather Forecast

Advertisements
Track Severe Weather on mobile